Buoy 32807

sailwx.info

Track history (hours):
 
Tides and Currents Weather Stations Pressure Air Temp Water Temp Dewpoint Dewpoint Depression Visibility Wind Speed Wind Dir Waves Ship Positions

Drifting buoy 32807

Last reported at 2018-Jun-24 09:45 UTC. Time now 2018-Jun-24 10:56 UTC.
Position S 31°14' W 100°28'.

Water temperature 18.8 ° C

Date/timePositionNaut miles runAvg speedWind from/ knotsBaromVisibWave heightAir tempDewpointWater temp
2018-Jun-24 09:45S 31°14' W 100°28'0 0.0 18.8
2018-Jun-24 09:30S 31°14' W 100°28'1 0.3 18.8
2018-Jun-24 05:45S 31°15' W 100°27'0 0.0 18.9
2018-Jun-24 05:30S 31°15' W 100°27'0 0.0 18.9
2018-Jun-24 04:45S 31°15' W 100°27'0 0.0 18.9
2018-Jun-24 04:30S 31°15' W 100°27'0 0.0 18.9
2018-Jun-24 04:15S 31°15' W 100°27'0 0.0 18.9
2018-Jun-24 04:00S 31°15' W 100°27'1 1.2 18.9
2018-Jun-24 03:00S 31°16' W 100°26'0 0.0 18.9
2018-Jun-24 02:45S 31°16' W 100°26'0 0.0 18.9
2018-Jun-24 02:30S 31°16' W 100°26'1 0.7 18.9
2018-Jun-24 01:45S 31°16' W 100°25'0 0.0 18.9
2018-Jun-24 01:30S 31°16' W 100°25'0 0.0 18.9
2018-Jun-24 01:15S 31°16' W 100°25'5 4.0 18.9
2018-Jun-24 00:00S 31°17' W 100°20'0 0.0 18.9
2018-Jun-23 23:45S 31°17' W 100°20'0 0.0 18.9
2018-Jun-23 22:15S 31°17' W 100°20'0 0.0 18.9
2018-Jun-23 17:30S 31°17' W 100°20'0 0.0 18.9
2018-Jun-23 17:15S 31°17' W 100°20'1 0.3 18.8
2018-Jun-23 15:45S 31°17' W 100°20'0 0.0 18.9
2018-Jun-23 15:30S 31°17' W 100°20'1 1.4 18.9
2018-Jun-23 14:45S 31°17' W 100°19'1 4.1 19.0
2018-Jun-23 14:30S 31°17' W 100°20'1 4.1 19.0
2018-Jun-23 14:15S 31°17' W 100°19'0 0.0 19.0
2018-Jun-23 14:00S 31°17' W 100°19'0 0.0 19.0
2018-Jun-23 13:00S 31°17' W 100°19'1 2.4 18.8
2018-Jun-23 12:45S 31°18' W 100°19'0 0.0 18.8
2018-Jun-23 11:30S 31°18' W 100°19'0 0.0 18.9
2018-Jun-23 10:00S 31°18' W 100°19'0 0.0 18.8
2018-Jun-23 09:45S 31°18' W 100°19'3 0.6 18.8
2018-Jun-23 05:00S 31°20' W 100°17'1 2.4 18.7
2018-Jun-23 04:30S 31°21' W 100°16'0 0.0 18.7
2018-Jun-23 04:15S 31°21' W 100°16'0 0.0 18.7
2018-Jun-23 03:30S 31°21' W 100°16'0 0.0 18.6
2018-Jun-23 03:15S 31°21' W 100°16'0 0.0 18.6
2018-Jun-23 03:00S 31°21' W 100°16'0 0.0 18.7
2018-Jun-23 02:45S 31°21' W 100°16'1 0.7 18.5
2018-Jun-23 02:00S 31°21' W 100°16'0 0.0 18.8
2018-Jun-23 01:45S 31°21' W 100°16'1 0.6 18.8
2018-Jun-23 00:30S 31°22' W 100°15'0 0.0 18.7
2018-Jun-23 00:15S 31°22' W 100°15'1 3.2 18.6
2018-Jun-23 00:00S 31°22' W 100°14'4 2.4 18.5
2018-Jun-22 22:30S 31°24' W 100°11'0 0.0 18.8
2018-Jun-22 16:45S 31°24' W 100°11'1 1.6 19.0
2018-Jun-22 16:00S 31°25' W 100°10'0 0.0 19.0
2018-Jun-22 15:00S 31°25' W 100°10'0 0.0 19.0
2018-Jun-22 14:30S 31°25' W 100°10'0 0.0 19.0
2018-Jun-22 14:15S 31°25' W 100°10'1 0.7 19.0
2018-Jun-22 13:30S 31°25' W 100°10'1 3.2 19.0
2018-Jun-22 13:15S 31°25' W 100°10'1 1.6 19.0
2018-Jun-22 12:45S 31°25' W 100°10'1 1.1 19.0
2018-Jun-22 12:00S 31°25' W 100°10'1 3.2 19.0
2018-Jun-22 11:45S 31°26' W 100°10'1 3.2 19.0
2018-Jun-22 11:30S 31°25' W 100°10'0 0.0 19.0
2018-Jun-22 10:15S 31°25' W 100°10'1 2.0 19.0
2018-Jun-22 10:00S 31°25' W 100°10'0 0.0 19.0
2018-Jun-22 08:30S 31°25' W 100°10'0 0.0 19.0
2018-Jun-22 05:30S 31°25' W 100°10'0 0.0 19.0
2018-Jun-22 05:15S 31°25' W 100°10'1 1.0 19.0
2018-Jun-22 04:45S 31°25' W 100°10'0 0.0 19.0
2018-Jun-22 04:30S 31°25' W 100°10'0 0.0 19.0
2018-Jun-22 03:45S 31°25' W 100°10'1 1.2 19.0
2018-Jun-22 03:15S 31°25' W 100°10'0 0.0 19.0
2018-Jun-22 03:00S 31°25' W 100°10'0 0.0 19.0
2018-Jun-22 02:45S 31°25' W 100°10'1 1.0 19.0
2018-Jun-22 02:15S 31°25' W 100°09'1 2.0 19.0
2018-Jun-22 02:00S 31°25' W 100°10'1 0.5 19.0
2018-Jun-22 01:00S 31°25' W 100°09'0 0.0 19.1
2018-Jun-22 00:45S 31°25' W 100°09'1 5.2 19.1
2018-Jun-22 00:30S 31°23' W 100°08'0 0.0 19.1
2018-Jun-22 00:15S 31°23' W 100°08'1 1.7 19.1
2018-Jun-21 23:30S 31°25' W 100°08'0 0.0 19.1
2018-Jun-21 23:15S 31°25' W 100°08'0 0.0 19.1
2018-Jun-21 22:45S 31°25' W 100°08'2 7.8 19.1
2018-Jun-21 22:30S 31°26' W 100°06'0 0.0 19.1
2018-Jun-21 17:00S 31°26' W 100°06'0 0.0 19.1
2018-Jun-21 16:30S 31°26' W 100°06'0 0.0 19.1
2018-Jun-21 16:15S 31°26' W 100°06'1 0.5 19.1
2018-Jun-21 14:45S 31°26' W 100°07'0 0.0 19.1
2018-Jun-21 14:30S 31°26' W 100°07'1 1.2 19.1
2018-Jun-21 14:00S 31°27' W 100°07'0 0.0 19.1
2018-Jun-21 13:45S 31°27' W 100°07'1 1.1 19.1
2018-Jun-21 13:00S 31°26' W 100°07'0 0.0 19.1
2018-Jun-21 12:45S 31°26' W 100°07'1 1.6 19.1
2018-Jun-21 12:15S 31°27' W 100°07'1 3.2 19.1
2018-Jun-21 12:00S 31°26' W 100°07'0 0.0 19.1
2018-Jun-21 10:15S 31°26' W 100°07'1 0.9 19.1
2018-Jun-21 08:45S 31°28' W 100°07'0 0.0 19.1
2018-Jun-21 08:30S 31°28' W 100°07'1 0.5 19.1
2018-Jun-21 05:45S 31°26' W 100°06'0 0.0 19.1
2018-Jun-21 05:15S 31°26' W 100°06'0 0.0 19.1
2018-Jun-21 05:00S 31°26' W 100°06'1 0.7 19.1
2018-Jun-21 04:15S 31°26' W 100°05'0 0.0 19.1
2018-Jun-21 04:00S 31°26' W 100°05'0 0.0 19.1
2018-Jun-21 03:30S 31°26' W 100°05'1 2.4 19.1
2018-Jun-21 03:15S 31°27' W 100°05'1 3.2 19.1
2018-Jun-21 03:00S 31°26' W 100°05'0 0.0 19.1
2018-Jun-21 02:45S 31°26' W 100°05'0 0.0 19.1
2018-Jun-21 02:30S 31°26' W 100°05'1 0.8 19.1
2018-Jun-21 01:30S 31°27' W 100°04'0 0.0 19.1
2018-Jun-21 01:00S 31°27' W 100°04'1 2.4 19.1
2018-Jun-21 00:45S 31°28' W 100°04'0 0.0 19.1
2018-Jun-21 00:30S 31°28' W 100°04'1 1.0 19.1
2018-Jun-21 00:00S 31°28' W 100°04'0 0.0 19.1
2018-Jun-20 23:45S 31°28' W 100°04'1 0.7 19.1
2018-Jun-20 23:00S 31°28' W 100°03'310.9 19.1
2018-Jun-20 22:45S 31°29' W 100°01'0 0.0 19.1
2018-Jun-20 21:15S 31°29' W 100°01'0 0.0 19.1
2018-Jun-20 16:45S 31°29' W 100°01'0 0.0 19.2
2018-Jun-20 16:30S 31°29' W 100°01'0 0.0 19.2
2018-Jun-20 15:45S 31°29' W 100°01'1 0.8 19.2
2018-Jun-20 15:00S 31°30' W 100°01'1 3.2 19.1
2018-Jun-20 14:45S 31°31' W 100°00'0 0.0 19.0
2018-Jun-20 14:00S 31°31' W 100°00'1 1.1 18.9
2018-Jun-20 13:15S 31°31' W 100°01'0 0.0 18.9
2018-Jun-20 13:00S 31°31' W 100°01'0 0.0 18.8
2018-Jun-20 12:45S 31°31' W 100°01'0 0.0 18.8
2018-Jun-20 12:30S 31°31' W 100°01'1 0.8 18.7
2018-Jun-20 11:00S 31°32' W 099°59'0 0.0 18.6
2018-Jun-20 10:30S 31°32' W 099°59'1 3.2 18.6
2018-Jun-20 10:15S 31°32' W 099°59'0 0.0 18.6
2018-Jun-20 08:45S 31°32' W 099°59'2 0.7 18.5
2018-Jun-20 06:00S 31°34' W 099°59'0 0.0 18.3
2018-Jun-20 05:30S 31°34' W 099°59'0 0.0 18.2
2018-Jun-20 04:30S 31°34' W 099°59'2 6.1 18.1
2018-Jun-20 04:15S 31°34' W 099°57'0 0.0 18.1
2018-Jun-20 03:45S 31°34' W 099°57'1 2.0 18.1
2018-Jun-20 03:30S 31°34' W 099°58'1 4.7 18.1
2018-Jun-20 03:15S 31°35' W 099°56'0 0.0 18.1
2018-Jun-20 03:00S 31°35' W 099°56'1 4.7 18.0
2018-Jun-20 02:45S 31°34' W 099°58'1 1.2 18.0
2018-Jun-20 01:45S 31°35' W 099°56'1 2.0 18.0
2018-Jun-20 01:30S 31°35' W 099°56'0 0.0 18.1
2018-Jun-20 01:15S 31°35' W 099°56'1 2.4 18.1
2018-Jun-20 00:45S 31°35' W 099°57'1 2.0 18.1
2018-Jun-20 00:30S 31°35' W 099°56'0 0.0 18.1
2018-Jun-20 00:15S 31°35' W 099°56'7 6.8 18.1
2018-Jun-19 23:15S 31°38' W 099°49'0 0.0 18.1
2018-Jun-19 23:00S 31°38' W 099°49'0 0.0 18.1
2018-Jun-19 22:45S 31°38' W 099°49'0 0.0 18.1
2018-Jun-19 21:30S 31°38' W 099°49'0 0.0 18.1
2018-Jun-19 21:15S 31°38' W 099°49'1 0.2 18.1
2018-Jun-19 17:00S 31°39' W 099°50'1 1.1 18.1
2018-Jun-19 16:15S 31°38' W 099°49'0 0.0 18.1
2018-Jun-19 16:00S 31°38' W 099°49'1 1.6 18.1
2018-Jun-19 15:30S 31°39' W 099°50'1 4.1 18.1
2018-Jun-19 15:15S 31°39' W 099°49'0 0.0 18.1
2018-Jun-19 15:00S 31°39' W 099°49'0 0.0 18.1
2018-Jun-19 14:45S 31°39' W 099°49'1 0.4 18.1
2018-Jun-19 13:15S 31°40' W 099°49'1 2.4 18.1
2018-Jun-19 13:00S 31°40' W 099°49'2 1.0 18.1
2018-Jun-19 11:30S 31°40' W 099°47'0 0.0 18.2
2018-Jun-19 10:45S 31°40' W 099°47'0 0.0 18.2
2018-Jun-19 10:30S 31°40' W 099°47'4 2.7 18.2
2018-Jun-19 09:00S 31°40' W 099°42'0 0.0 18.2
2018-Jun-19 05:45S 31°40' W 099°42'0 0.0 18.3
2018-Jun-19 04:45S 31°40' W 099°42'1 1.2 18.4
2018-Jun-19 04:15S 31°41' W 099°42'0 0.0 18.5
2018-Jun-19 04:00S 31°41' W 099°42'1 4.1 18.5
2018-Jun-19 03:45S 31°41' W 099°41'1 3.2 18.5
2018-Jun-19 03:30S 31°41' W 099°40'1 2.4 18.6
2018-Jun-19 03:15S 31°41' W 099°40'1 2.0 18.6
2018-Jun-19 03:00S 31°41' W 099°41'1 0.8 18.6
2018-Jun-19 02:00S 31°41' W 099°40'1 4.7 18.6
2018-Jun-19 01:45S 31°41' W 099°39'0 0.0 18.7
2018-Jun-19 01:00S 31°41' W 099°39'0 0.0 18.7
2018-Jun-19 00:45S 31°41' W 099°39'2 1.7 18.7
2018-Jun-18 23:30S 31°41' W 099°37'520.3 18.8
2018-Jun-18 23:15S 31°45' W 099°32'417.1 18.8
2018-Jun-18 23:00S 31°42' W 099°36'4 3.4 18.8
2018-Jun-18 21:45S 31°45' W 099°32'0 0.0 18.9
2018-Jun-18 21:30S 31°45' W 099°32'2 0.3 18.9
2018-Jun-18 15:45S 31°46' W 099°31'1 3.2 19.1
2018-Jun-18 15:30S 31°46' W 099°31'0 0.0 19.1
2018-Jun-18 15:15S 31°46' W 099°31'0 0.0 19.1
2018-Jun-18 15:00S 31°46' W 099°31'1 2.4 19.1
2018-Jun-18 14:45S 31°46' W 099°31'1 1.2 19.1
2018-Jun-18 14:15S 31°46' W 099°31'1 2.4 19.1
2018-Jun-18 14:00S 31°47' W 099°31'0 0.0 19.1
2018-Jun-18 13:45S 31°47' W 099°31'1 3.2 19.1
2018-Jun-18 13:30S 31°46' W 099°31'0 0.0 19.1
2018-Jun-18 13:15S 31°46' W 099°31'1 0.5 19.1
2018-Jun-18 12:00S 31°47' W 099°31'0 0.0 19.1
2018-Jun-18 11:45S 31°47' W 099°31'1 1.0 19.1
2018-Jun-18 11:00S 31°47' W 099°30'0 0.0 19.1
2018-Jun-18 10:45S 31°47' W 099°30'1 0.3 19.2
2018-Jun-18 06:00S 31°49' W 099°29'0 0.0 19.3
2018-Jun-18 05:15S 31°49' W 099°29'1 3.1 19.3
2018-Jun-18 05:00S 31°49' W 099°29'0 0.0 19.3
2018-Jun-18 04:30S 31°49' W 099°29'0 0.0 19.3
2018-Jun-18 04:15S 31°49' W 099°29'2 3.1 19.3
2018-Jun-18 03:45S 31°50' W 099°28'0 0.0 19.3
2018-Jun-18 03:30S 31°50' W 099°28'0 0.0 19.3
2018-Jun-18 03:15S 31°50' W 099°28'0 0.0 19.3
2018-Jun-18 02:45S 31°50' W 099°28'0 0.0 19.3
2018-Jun-18 02:15S 31°50' W 099°28'1 2.4 19.3
2018-Jun-18 02:00S 31°51' W 099°28'0 0.0 19.3
2018-Jun-18 01:30S 31°51' W 099°28'0 0.0 19.3
2018-Jun-18 01:15S 31°51' W 099°28'1 1.2 19.3
2018-Jun-18 00:45S 31°52' W 099°28'0 0.0 19.3
2018-Jun-18 00:30S 31°52' W 099°28'1 1.4 19.3
2018-Jun-17 23:45S 31°52' W 099°26'1 4.7 19.3
2018-Jun-17 23:30S 31°52' W 099°25'0 0.0 19.3
2018-Jun-17 23:15S 31°52' W 099°25'3 1.7 19.3
2018-Jun-17 21:45S 31°55' W 099°24'0 0.0 19.3
2018-Jun-17 16:45S 31°55' W 099°24'1 1.0 19.2
2018-Jun-17 16:15S 31°55' W 099°23'0 0.0 19.2
2018-Jun-17 16:00S 31°55' W 099°23'0 0.0 19.2
2018-Jun-17 15:30S 31°55' W 099°23'0 0.0 19.1
2018-Jun-17 15:15S 31°55' W 099°23'1 4.7 19.1
2018-Jun-17 15:00S 31°55' W 099°22'1 1.4 19.1
2018-Jun-17 14:15S 31°55' W 099°23'1 3.1 19.1
2018-Jun-17 14:00S 31°56' W 099°23'1 2.4 19.1
2018-Jun-17 13:45S 31°55' W 099°23'0 0.0 19.1
2018-Jun-17 13:30S 31°55' W 099°23'1 1.0 19.1
2018-Jun-17 12:30S 31°55' W 099°22'1 2.4 19.0
2018-Jun-17 12:15S 31°56' W 099°22'0 0.0 19.0
2018-Jun-17 11:15S 31°56' W 099°22'0 0.0 19.0
2018-Jun-17 11:00S 31°56' W 099°22'1 0.7 19.0
2018-Jun-17 09:30S 31°56' W 099°23'0 0.0 19.0
2018-Jun-17 09:15S 31°56' W 099°23'3 0.8 19.0
2018-Jun-17 05:30S 31°56' W 099°19'0 0.0 18.9
2018-Jun-17 04:45S 31°56' W 099°19'0 0.0 19.0
2018-Jun-17 04:00S 31°56' W 099°19'1 3.1 19.1
2018-Jun-17 03:45S 31°56' W 099°19'1 1.0 19.1
2018-Jun-17 03:15S 31°56' W 099°19'1 2.0 19.1
2018-Jun-17 03:00S 31°56' W 099°19'0 0.0 19.1
2018-Jun-17 02:45S 31°56' W 099°19'0 0.0 19.1
2018-Jun-17 02:30S 31°56' W 099°19'1 3.1 19.1
2018-Jun-17 02:15S 31°57' W 099°18'0 0.0 19.1
2018-Jun-17 02:00S 31°57' W 099°18'1 0.5 19.1
2018-Jun-17 01:00S 31°57' W 099°19'1 2.0 19.1
2018-Jun-17 00:45S 31°57' W 099°18'0 0.0 19.1
2018-Jun-17 00:15S 31°57' W 099°18'0 0.0 19.1
2018-Jun-16 23:45S 31°57' W 099°18'1 4.1 19.1
2018-Jun-16 23:30S 31°57' W 099°17'0 0.0 19.1
2018-Jun-16 22:45S 31°57' W 099°17'0 0.0 19.1
2018-Jun-16 22:30S 31°57' W 099°17'2 3.7 19.1
2018-Jun-16 22:00S 31°59' W 099°16'0 0.0 19.1
2018-Jun-16 17:15S 31°59' W 099°16'0 0.0 19.1
2018-Jun-16 17:00S 31°59' W 099°16'0 0.0 19.1
2018-Jun-16 16:30S 31°59' W 099°16'0 0.0 19.1
2018-Jun-16 16:15S 31°59' W 099°16'0 0.0 19.1
2018-Jun-16 14:45S 31°59' W 099°16'0 0.0 19.2
2018-Jun-16 14:15S 31°59' W 099°16'0 0.0 19.2
2018-Jun-16 14:00S 31°59' W 099°16'0 0.0 19.1
2018-Jun-16 13:45S 31°59' W 099°16'0 0.0 19.2
2018-Jun-16 13:15S 31°59' W 099°16'0 0.0 19.2
2018-Jun-16 13:00S 31°59' W 099°16'1 2.4 19.3
2018-Jun-16 12:45S 31°58' W 099°16'0 0.0 19.3
2018-Jun-16 12:30S 31°58' W 099°16'1 2.0 19.3
2018-Jun-16 12:15S 31°58' W 099°16'0 0.0 19.3
2018-Jun-16 11:30S 31°58' W 099°16'0 0.0 19.3
2018-Jun-16 11:15S 31°58' W 099°16'1 2.0 19.3
2018-Jun-16 11:00S 31°58' W 099°16'0 0.0 19.3
2018-Jun-16 09:45S 31°58' W 099°16'1 2.4 19.3
2018-Jun-16 09:30S 31°59' W 099°16'2 0.4 19.3
2018-Jun-16 05:45S 31°58' W 099°15'0 0.0 19.4
2018-Jun-16 05:15S 31°58' W 099°15'0 0.0 19.4
2018-Jun-16 05:00S 31°58' W 099°15'1 0.7 19.4
2018-Jun-16 04:15S 31°58' W 099°14'1 2.0 19.4
2018-Jun-16 04:00S 31°58' W 099°14'0 0.0 19.4
2018-Jun-16 03:30S 31°58' W 099°14'1 4.1 19.4
2018-Jun-16 03:15S 31°58' W 099°15'1 4.1 19.4
2018-Jun-16 03:00S 31°58' W 099°14'1 2.4 19.4
2018-Jun-16 02:30S 31°58' W 099°15'0 0.0 19.4
2018-Jun-16 02:15S 31°58' W 099°15'0 0.0 19.4
2018-Jun-16 01:30S 31°58' W 099°15'0 0.0 19.4
2018-Jun-16 01:15S 31°58' W 099°15'1 1.6 19.5
2018-Jun-16 00:45S 31°59' W 099°14'0 0.0 19.5
2018-Jun-16 00:00S 31°59' W 099°14'0 0.0 19.5
2018-Jun-15 23:45S 31°59' W 099°14'0 0.0 19.5
2018-Jun-15 23:15S 31°59' W 099°14'0 0.0 19.5
2018-Jun-15 23:00S 31°59' W 099°14'1 0.8 19.5
2018-Jun-15 22:15S 31°59' W 099°14'1 5.2 19.5
2018-Jun-15 22:00S 32°01' W 099°15'0 0.0 19.5
2018-Jun-15 16:45S 32°01' W 099°15'1 0.5 19.4
2018-Jun-15 15:45S 32°01' W 099°16'0 0.0 19.4
2018-Jun-15 15:15S 32°01' W 099°16'0 0.0 19.4
2018-Jun-15 15:00S 32°01' W 099°16'0 0.0 19.4
2018-Jun-15 14:15S 32°01' W 099°16'0 0.0 19.4
2018-Jun-15 14:00S 32°01' W 099°16'0 0.0 19.4
2018-Jun-15 13:30S 32°01' W 099°16'1 1.0 19.4
2018-Jun-15 13:00S 32°01' W 099°15'0 0.0 19.4
2018-Jun-15 12:30S 32°01' W 099°15'0 0.0 19.4
2018-Jun-15 12:15S 32°01' W 099°15'0 0.0 19.4
2018-Jun-15 12:00S 32°01' W 099°15'1 3.1 19.4
2018-Jun-15 11:45S 32°01' W 099°14'0 0.0 19.4
2018-Jun-15 11:30S 32°01' W 099°14'0 0.0 19.4
2018-Jun-15 11:15S 32°01' W 099°14'0 0.0 19.4
2018-Jun-15 09:45S 32°01' W 099°14'3 0.7 19.4
2018-Jun-15 05:30S 32°04' W 099°13'1 4.8 19.5
2018-Jun-15 05:15S 32°02' W 099°13'2 2.5 19.5
2018-Jun-15 04:30S 32°04' W 099°13'0 0.0 19.5
2018-Jun-15 04:15S 32°04' W 099°13'1 3.1 19.5
2018-Jun-15 04:00S 32°04' W 099°13'0 0.0 19.5
2018-Jun-15 03:45S 32°04' W 099°13'1 0.8 19.5
2018-Jun-15 02:45S 32°04' W 099°13'0 0.0 19.5
2018-Jun-15 02:30S 32°04' W 099°13'0 0.0 19.5
2018-Jun-15 02:00S 32°04' W 099°13'0 0.0 19.5
2018-Jun-15 01:45S 32°04' W 099°13'1 1.0 19.5
2018-Jun-15 01:15S 32°04' W 099°13'1 2.4 19.5
2018-Jun-15 01:00S 32°05' W 099°13'0 0.0 19.5
2018-Jun-15 00:15S 32°05' W 099°13'0 0.0 19.5
2018-Jun-15 00:00S 32°05' W 099°13'0 0.0 19.5
2018-Jun-14 23:45S 32°05' W 099°13'1 3.1 19.5
2018-Jun-14 23:30S 32°05' W 099°13'0 0.0 19.5
2018-Jun-14 22:30S 32°05' W 099°13'1 4.1 19.5
2018-Jun-14 22:15S 32°05' W 099°12'0 0.0 19.5
2018-Jun-14 17:15S 32°05' W 099°12'0 0.0 19.5
2018-Jun-14 17:00S 32°05' W 099°12'1 0.8 19.5
2018-Jun-14 16:15S 32°06' W 099°12'0 0.0 19.4
2018-Jun-14 16:00S 32°06' W 099°12'0 0.0 19.4
2018-Jun-14 15:30S 32°06' W 099°12'0 0.0 19.4
2018-Jun-14 15:15S 32°06' W 099°12'0 0.0 19.4
2018-Jun-14 14:15S 32°06' W 099°12'1 3.1 19.4
2018-Jun-14 14:00S 32°07' W 099°11'0 0.0 19.4
2018-Jun-14 13:45S 32°07' W 099°11'0 0.0 19.4
2018-Jun-14 13:30S 32°07' W 099°11'0 0.0 19.4
2018-Jun-14 13:15S 32°07' W 099°11'1 0.7 19.4
2018-Jun-14 12:30S 32°07' W 099°11'0 0.0 19.4
2018-Jun-14 12:15S 32°07' W 099°11'0 0.0 19.4
2018-Jun-14 12:00S 32°07' W 099°11'0 0.0 19.4
2018-Jun-14 11:45S 32°07' W 099°11'0 0.0 19.4
2018-Jun-14 11:30S 32°07' W 099°11'1 0.4 19.4
2018-Jun-14 10:00S 32°07' W 099°11'2 8.3 19.4
2018-Jun-14 09:45S 32°09' W 099°10'   19.4
Track history (hours):
 
Tides and Currents Weather Stations Pressure Air Temp Water Temp Dewpoint Dewpoint Depression Visibility Wind Speed Wind Dir Waves Ship Positions

Drifting buoy 32807

Last reported at 2018-Jun-24 09:45 UTC. Time now 2018-Jun-24 10:56 UTC.
Position S 31°14' W 100°28'.

Water temperature 18.8 ° C

Date/timePositionNaut miles runAvg speedWind from/ knotsBaromVisibWave heightAir tempDewpointWater temp
2018-Jun-24 09:45S 31°14' W 100°28'0 0.0 18.8
2018-Jun-24 09:30S 31°14' W 100°28'1 0.3 18.8
2018-Jun-24 05:45S 31°15' W 100°27'0 0.0 18.9
2018-Jun-24 05:30S 31°15' W 100°27'0 0.0 18.9
2018-Jun-24 04:45S 31°15' W 100°27'0 0.0 18.9
2018-Jun-24 04:30S 31°15' W 100°27'0 0.0 18.9
2018-Jun-24 04:15S 31°15' W 100°27'0 0.0 18.9
2018-Jun-24 04:00S 31°15' W 100°27'1 1.2 18.9
2018-Jun-24 03:00S 31°16' W 100°26'0 0.0 18.9
2018-Jun-24 02:45S 31°16' W 100°26'0 0.0 18.9
2018-Jun-24 02:30S 31°16' W 100°26'1 0.7 18.9
2018-Jun-24 01:45S 31°16' W 100°25'0 0.0 18.9
2018-Jun-24 01:30S 31°16' W 100°25'0 0.0 18.9
2018-Jun-24 01:15S 31°16' W 100°25'5 4.0 18.9
2018-Jun-24 00:00S 31°17' W 100°20'0 0.0 18.9
2018-Jun-23 23:45S 31°17' W 100°20'0 0.0 18.9
2018-Jun-23 22:15S 31°17' W 100°20'0 0.0 18.9
2018-Jun-23 17:30S 31°17' W 100°20'0 0.0 18.9
2018-Jun-23 17:15S 31°17' W 100°20'1 0.3 18.8
2018-Jun-23 15:45S 31°17' W 100°20'0 0.0 18.9
2018-Jun-23 15:30S 31°17' W 100°20'1 1.4 18.9
2018-Jun-23 14:45S 31°17' W 100°19'1 4.1 19.0
2018-Jun-23 14:30S 31°17' W 100°20'1 4.1 19.0
2018-Jun-23 14:15S 31°17' W 100°19'0 0.0 19.0
2018-Jun-23 14:00S 31°17' W 100°19'0 0.0 19.0
2018-Jun-23 13:00S 31°17' W 100°19'1 2.4 18.8
2018-Jun-23 12:45S 31°18' W 100°19'0 0.0 18.8
2018-Jun-23 11:30S 31°18' W 100°19'0 0.0 18.9
2018-Jun-23 10:00S 31°18' W 100°19'0 0.0 18.8
2018-Jun-23 09:45S 31°18' W 100°19'3 0.6 18.8
2018-Jun-23 05:00S 31°20' W 100°17'1 2.4 18.7
2018-Jun-23 04:30S 31°21' W 100°16'0 0.0 18.7
2018-Jun-23 04:15S 31°21' W 100°16'0 0.0 18.7
2018-Jun-23 03:30S 31°21' W 100°16'0 0.0 18.6
2018-Jun-23 03:15S 31°21' W 100°16'0 0.0 18.6
2018-Jun-23 03:00S 31°21' W 100°16'0 0.0 18.7
2018-Jun-23 02:45S 31°21' W 100°16'1 0.7 18.5
2018-Jun-23 02:00S 31°21' W 100°16'0 0.0 18.8
2018-Jun-23 01:45S 31°21' W 100°16'1 0.6 18.8
2018-Jun-23 00:30S 31°22' W 100°15'0 0.0 18.7
2018-Jun-23 00:15S 31°22' W 100°15'1 3.2 18.6
2018-Jun-23 00:00S 31°22' W 100°14'4 2.4 18.5
2018-Jun-22 22:30S 31°24' W 100°11'0 0.0 18.8
2018-Jun-22 16:45S 31°24' W 100°11'1 1.6 19.0
2018-Jun-22 16:00S 31°25' W 100°10'0 0.0 19.0
2018-Jun-22 15:00S 31°25' W 100°10'0 0.0 19.0
2018-Jun-22 14:30S 31°25' W 100°10'0 0.0 19.0
2018-Jun-22 14:15S 31°25' W 100°10'1 0.7 19.0
2018-Jun-22 13:30S 31°25' W 100°10'1 3.2 19.0
2018-Jun-22 13:15S 31°25' W 100°10'1 1.6 19.0
2018-Jun-22 12:45S 31°25' W 100°10'1 1.1 19.0
2018-Jun-22 12:00S 31°25' W 100°10'1 3.2 19.0
2018-Jun-22 11:45S 31°26' W 100°10'1 3.2 19.0
2018-Jun-22 11:30S 31°25' W 100°10'0 0.0 19.0
2018-Jun-22 10:15S 31°25' W 100°10'1 2.0 19.0
2018-Jun-22 10:00S 31°25' W 100°10'0 0.0 19.0
2018-Jun-22 08:30S 31°25' W 100°10'0 0.0 19.0
2018-Jun-22 05:30S 31°25' W 100°10'0 0.0 19.0
2018-Jun-22 05:15S 31°25' W 100°10'1 1.0 19.0
2018-Jun-22 04:45S 31°25' W 100°10'0 0.0 19.0
2018-Jun-22 04:30S 31°25' W 100°10'0 0.0 19.0
2018-Jun-22 03:45S 31°25' W 100°10'1 1.2 19.0
2018-Jun-22 03:15S 31°25' W 100°10'0 0.0 19.0
2018-Jun-22 03:00S 31°25' W 100°10'0 0.0 19.0
2018-Jun-22 02:45S 31°25' W 100°10'1 1.0 19.0
2018-Jun-22 02:15S 31°25' W 100°09'1 2.0 19.0
2018-Jun-22 02:00S 31°25' W 100°10'1 0.5 19.0
2018-Jun-22 01:00S 31°25' W 100°09'0 0.0 19.1
2018-Jun-22 00:45S 31°25' W 100°09'1 5.2 19.1
2018-Jun-22 00:30S 31°23' W 100°08'0 0.0 19.1
2018-Jun-22 00:15S 31°23' W 100°08'1 1.7 19.1
2018-Jun-21 23:30S 31°25' W 100°08'0 0.0 19.1
2018-Jun-21 23:15S 31°25' W 100°08'0 0.0 19.1
2018-Jun-21 22:45S 31°25' W 100°08'2 7.8 19.1
2018-Jun-21 22:30S 31°26' W 100°06'0 0.0 19.1
2018-Jun-21 17:00S 31°26' W 100°06'0 0.0 19.1
2018-Jun-21 16:30S 31°26' W 100°06'0 0.0 19.1
2018-Jun-21 16:15S 31°26' W 100°06'1 0.5 19.1
2018-Jun-21 14:45S 31°26' W 100°07'0 0.0 19.1
2018-Jun-21 14:30S 31°26' W 100°07'1 1.2 19.1
2018-Jun-21 14:00S 31°27' W 100°07'0 0.0 19.1
2018-Jun-21 13:45S 31°27' W 100°07'1 1.1 19.1
2018-Jun-21 13:00S 31°26' W 100°07'0 0.0 19.1
2018-Jun-21 12:45S 31°26' W 100°07'1 1.6 19.1
2018-Jun-21 12:15S 31°27' W 100°07'1 3.2 19.1
2018-Jun-21 12:00S 31°26' W 100°07'0 0.0 19.1
2018-Jun-21 10:15S 31°26' W 100°07'1 0.9 19.1
2018-Jun-21 08:45S 31°28' W 100°07'0 0.0 19.1
2018-Jun-21 08:30S 31°28' W 100°07'1 0.5 19.1
2018-Jun-21 05:45S 31°26' W 100°06'0 0.0 19.1
2018-Jun-21 05:15S 31°26' W 100°06'0 0.0 19.1
2018-Jun-21 05:00S 31°26' W 100°06'1 0.7 19.1
2018-Jun-21 04:15S 31°26' W 100°05'0 0.0 19.1
2018-Jun-21 04:00S 31°26' W 100°05'0 0.0 19.1
2018-Jun-21 03:30S 31°26' W 100°05'1 2.4 19.1
2018-Jun-21 03:15S 31°27' W 100°05'1 3.2 19.1
2018-Jun-21 03:00S 31°26' W 100°05'0 0.0 19.1
2018-Jun-21 02:45S 31°26' W 100°05'0 0.0 19.1
2018-Jun-21 02:30S 31°26' W 100°05'1 0.8 19.1
2018-Jun-21 01:30S 31°27' W 100°04'0 0.0 19.1
2018-Jun-21 01:00S 31°27' W 100°04'1 2.4 19.1
2018-Jun-21 00:45S 31°28' W 100°04'0 0.0 19.1
2018-Jun-21 00:30S 31°28' W 100°04'1 1.0 19.1
2018-Jun-21 00:00S 31°28' W 100°04'0 0.0 19.1
2018-Jun-20 23:45S 31°28' W 100°04'1 0.7 19.1
2018-Jun-20 23:00S 31°28' W 100°03'310.9 19.1
2018-Jun-20 22:45S 31°29' W 100°01'0 0.0 19.1
2018-Jun-20 21:15S 31°29' W 100°01'0 0.0 19.1
2018-Jun-20 16:45S 31°29' W 100°01'0 0.0 19.2
2018-Jun-20 16:30S 31°29' W 100°01'0 0.0 19.2
2018-Jun-20 15:45S 31°29' W 100°01'1 0.8 19.2
2018-Jun-20 15:00S 31°30' W 100°01'1 3.2 19.1
2018-Jun-20 14:45S 31°31' W 100°00'0 0.0 19.0
2018-Jun-20 14:00S 31°31' W 100°00'1 1.1 18.9
2018-Jun-20 13:15S 31°31' W 100°01'0 0.0 18.9
2018-Jun-20 13:00S 31°31' W 100°01'0 0.0 18.8
2018-Jun-20 12:45S 31°31' W 100°01'0 0.0 18.8
2018-Jun-20 12:30S 31°31' W 100°01'1 0.8 18.7
2018-Jun-20 11:00S 31°32' W 099°59'0 0.0 18.6
2018-Jun-20 10:30S 31°32' W 099°59'1 3.2 18.6
2018-Jun-20 10:15S 31°32' W 099°59'0 0.0 18.6
2018-Jun-20 08:45S 31°32' W 099°59'2 0.7 18.5
2018-Jun-20 06:00S 31°34' W 099°59'0 0.0 18.3
2018-Jun-20 05:30S 31°34' W 099°59'0 0.0 18.2
2018-Jun-20 04:30S 31°34' W 099°59'2 6.1 18.1
2018-Jun-20 04:15S 31°34' W 099°57'0 0.0 18.1
2018-Jun-20 03:45S 31°34' W 099°57'1 2.0 18.1
2018-Jun-20 03:30S 31°34' W 099°58'1 4.7 18.1
2018-Jun-20 03:15S 31°35' W 099°56'0 0.0 18.1
2018-Jun-20 03:00S 31°35' W 099°56'1 4.7 18.0
2018-Jun-20 02:45S 31°34' W 099°58'1 1.2 18.0
2018-Jun-20 01:45S 31°35' W 099°56'1 2.0 18.0
2018-Jun-20 01:30S 31°35' W 099°56'0 0.0 18.1
2018-Jun-20 01:15S 31°35' W 099°56'1 2.4 18.1
2018-Jun-20 00:45S 31°35' W 099°57'1 2.0 18.1
2018-Jun-20 00:30S 31°35' W 099°56'0 0.0 18.1
2018-Jun-20 00:15S 31°35' W 099°56'7 6.8 18.1
2018-Jun-19 23:15S 31°38' W 099°49'0 0.0 18.1
2018-Jun-19 23:00S 31°38' W 099°49'0 0.0 18.1
2018-Jun-19 22:45S 31°38' W 099°49'0 0.0 18.1
2018-Jun-19 21:30S 31°38' W 099°49'0 0.0 18.1
2018-Jun-19 21:15S 31°38' W 099°49'1 0.2 18.1
2018-Jun-19 17:00S 31°39' W 099°50'1 1.1 18.1
2018-Jun-19 16:15S 31°38' W 099°49'0 0.0 18.1
2018-Jun-19 16:00S 31°38' W 099°49'1 1.6 18.1
2018-Jun-19 15:30S 31°39' W 099°50'1 4.1 18.1
2018-Jun-19 15:15S 31°39' W 099°49'0 0.0 18.1
2018-Jun-19 15:00S 31°39' W 099°49'0 0.0 18.1
2018-Jun-19 14:45S 31°39' W 099°49'1 0.4 18.1
2018-Jun-19 13:15S 31°40' W 099°49'1 2.4 18.1
2018-Jun-19 13:00S 31°40' W 099°49'2 1.0 18.1
2018-Jun-19 11:30S 31°40' W 099°47'0 0.0 18.2
2018-Jun-19 10:45S 31°40' W 099°47'0 0.0 18.2
2018-Jun-19 10:30S 31°40' W 099°47'4 2.7 18.2
2018-Jun-19 09:00S 31°40' W 099°42'0 0.0 18.2
2018-Jun-19 05:45S 31°40' W 099°42'0 0.0 18.3
2018-Jun-19 04:45S 31°40' W 099°42'1 1.2 18.4
2018-Jun-19 04:15S 31°41' W 099°42'0 0.0 18.5
2018-Jun-19 04:00S 31°41' W 099°42'1 4.1 18.5
2018-Jun-19 03:45S 31°41' W 099°41'1 3.2 18.5
2018-Jun-19 03:30S 31°41' W 099°40'1 2.4 18.6
2018-Jun-19 03:15S 31°41' W 099°40'1 2.0 18.6
2018-Jun-19 03:00S 31°41' W 099°41'1 0.8 18.6
2018-Jun-19 02:00S 31°41' W 099°40'1 4.7 18.6
2018-Jun-19 01:45S 31°41' W 099°39'0 0.0 18.7
2018-Jun-19 01:00S 31°41' W 099°39'0 0.0 18.7
2018-Jun-19 00:45S 31°41' W 099°39'2 1.7 18.7
2018-Jun-18 23:30S 31°41' W 099°37'520.3 18.8
2018-Jun-18 23:15S 31°45' W 099°32'417.1 18.8
2018-Jun-18 23:00S 31°42' W 099°36'4 3.4 18.8
2018-Jun-18 21:45S 31°45' W 099°32'0 0.0 18.9
2018-Jun-18 21:30S 31°45' W 099°32'2 0.3 18.9
2018-Jun-18 15:45S 31°46' W 099°31'1 3.2 19.1
2018-Jun-18 15:30S 31°46' W 099°31'0 0.0 19.1
2018-Jun-18 15:15S 31°46' W 099°31'0 0.0 19.1
2018-Jun-18 15:00S 31°46' W 099°31'1 2.4 19.1
2018-Jun-18 14:45S 31°46' W 099°31'1 1.2 19.1
2018-Jun-18 14:15S 31°46' W 099°31'1 2.4 19.1
2018-Jun-18 14:00S 31°47' W 099°31'0 0.0 19.1
2018-Jun-18 13:45S 31°47' W 099°31'1 3.2 19.1
2018-Jun-18 13:30S 31°46' W 099°31'0 0.0 19.1
2018-Jun-18 13:15S 31°46' W 099°31'1 0.5 19.1
2018-Jun-18 12:00S 31°47' W 099°31'0 0.0 19.1
2018-Jun-18 11:45S 31°47' W 099°31'1 1.0 19.1
2018-Jun-18 11:00S 31°47' W 099°30'0 0.0 19.1
2018-Jun-18 10:45S 31°47' W 099°30'1 0.3 19.2
2018-Jun-18 06:00S 31°49' W 099°29'0 0.0 19.3
2018-Jun-18 05:15S 31°49' W 099°29'1 3.1 19.3
2018-Jun-18 05:00S 31°49' W 099°29'0 0.0 19.3
2018-Jun-18 04:30S 31°49' W 099°29'0 0.0 19.3
2018-Jun-18 04:15S 31°49' W 099°29'2 3.1 19.3
2018-Jun-18 03:45S 31°50' W 099°28'0 0.0 19.3
2018-Jun-18 03:30S 31°50' W 099°28'0 0.0 19.3
2018-Jun-18 03:15S 31°50' W 099°28'0 0.0 19.3
2018-Jun-18 02:45S 31°50' W 099°28'0 0.0 19.3
2018-Jun-18 02:15S 31°50' W 099°28'1 2.4 19.3
2018-Jun-18 02:00S 31°51' W 099°28'0 0.0 19.3
2018-Jun-18 01:30S 31°51' W 099°28'0 0.0 19.3
2018-Jun-18 01:15S 31°51' W 099°28'1 1.2 19.3
2018-Jun-18 00:45S 31°52' W 099°28'0 0.0 19.3
2018-Jun-18 00:30S 31°52' W 099°28'1 1.4 19.3
2018-Jun-17 23:45S 31°52' W 099°26'1 4.7 19.3
2018-Jun-17 23:30S 31°52' W 099°25'0 0.0 19.3
2018-Jun-17 23:15S 31°52' W 099°25'3 1.7 19.3
2018-Jun-17 21:45S 31°55' W 099°24'0 0.0 19.3
2018-Jun-17 16:45S 31°55' W 099°24'1 1.0 19.2
2018-Jun-17 16:15S 31°55' W 099°23'0 0.0 19.2
2018-Jun-17 16:00S 31°55' W 099°23'0 0.0 19.2
2018-Jun-17 15:30S 31°55' W 099°23'0 0.0 19.1
2018-Jun-17 15:15S 31°55' W 099°23'1 4.7 19.1
2018-Jun-17 15:00S 31°55' W 099°22'1 1.4 19.1
2018-Jun-17 14:15S 31°55' W 099°23'1 3.1 19.1
2018-Jun-17 14:00S 31°56' W 099°23'1 2.4 19.1
2018-Jun-17 13:45S 31°55' W 099°23'0 0.0 19.1
2018-Jun-17 13:30S 31°55' W 099°23'1 1.0 19.1
2018-Jun-17 12:30S 31°55' W 099°22'1 2.4 19.0
2018-Jun-17 12:15S 31°56' W 099°22'0 0.0 19.0
2018-Jun-17 11:15S 31°56' W 099°22'0 0.0 19.0
2018-Jun-17 11:00S 31°56' W 099°22'1 0.7 19.0
2018-Jun-17 09:30S 31°56' W 099°23'0 0.0 19.0
2018-Jun-17 09:15S 31°56' W 099°23'3 0.8 19.0
2018-Jun-17 05:30S 31°56' W 099°19'0 0.0 18.9
2018-Jun-17 04:45S 31°56' W 099°19'0 0.0 19.0
2018-Jun-17 04:00S 31°56' W 099°19'1 3.1 19.1
2018-Jun-17 03:45S 31°56' W 099°19'1 1.0 19.1
2018-Jun-17 03:15S 31°56' W 099°19'1 2.0 19.1
2018-Jun-17 03:00S 31°56' W 099°19'0 0.0 19.1
2018-Jun-17 02:45S 31°56' W 099°19'0 0.0 19.1
2018-Jun-17 02:30S 31°56' W 099°19'1 3.1 19.1
2018-Jun-17 02:15S 31°57' W 099°18'0 0.0 19.1
2018-Jun-17 02:00S 31°57' W 099°18'1 0.5 19.1
2018-Jun-17 01:00S 31°57' W 099°19'1 2.0 19.1
2018-Jun-17 00:45S 31°57' W 099°18'0 0.0 19.1
2018-Jun-17 00:15S 31°57' W 099°18'0 0.0 19.1
2018-Jun-16 23:45S 31°57' W 099°18'1 4.1 19.1
2018-Jun-16 23:30S 31°57' W 099°17'0 0.0 19.1
2018-Jun-16 22:45S 31°57' W 099°17'0 0.0 19.1
2018-Jun-16 22:30S 31°57' W 099°17'2 3.7 19.1
2018-Jun-16 22:00S 31°59' W 099°16'0 0.0 19.1
2018-Jun-16 17:15S 31°59' W 099°16'0 0.0 19.1
2018-Jun-16 17:00S 31°59' W 099°16'0 0.0 19.1
2018-Jun-16 16:30S 31°59' W 099°16'0 0.0 19.1
2018-Jun-16 16:15S 31°59' W 099°16'0 0.0 19.1
2018-Jun-16 14:45S 31°59' W 099°16'0 0.0 19.2
2018-Jun-16 14:15S 31°59' W 099°16'0 0.0 19.2
2018-Jun-16 14:00S 31°59' W 099°16'0 0.0 19.1
2018-Jun-16 13:45S 31°59' W 099°16'0 0.0 19.2
2018-Jun-16 13:15S 31°59' W 099°16'0 0.0 19.2
2018-Jun-16 13:00S 31°59' W 099°16'1 2.4 19.3
2018-Jun-16 12:45S 31°58' W 099°16'0 0.0 19.3
2018-Jun-16 12:30S 31°58' W 099°16'1 2.0 19.3
2018-Jun-16 12:15S 31°58' W 099°16'0 0.0 19.3
2018-Jun-16 11:30S 31°58' W 099°16'0 0.0 19.3
2018-Jun-16 11:15S 31°58' W 099°16'1 2.0 19.3
2018-Jun-16 11:00S 31°58' W 099°16'0 0.0 19.3
2018-Jun-16 09:45S 31°58' W 099°16'1 2.4 19.3
2018-Jun-16 09:30S 31°59' W 099°16'2 0.4 19.3
2018-Jun-16 05:45S 31°58' W 099°15'0 0.0 19.4
2018-Jun-16 05:15S 31°58' W 099°15'0 0.0 19.4
2018-Jun-16 05:00S 31°58' W 099°15'1 0.7 19.4
2018-Jun-16 04:15S 31°58' W 099°14'1 2.0 19.4
2018-Jun-16 04:00S 31°58' W 099°14'0 0.0 19.4
2018-Jun-16 03:30S 31°58' W 099°14'1 4.1 19.4
2018-Jun-16 03:15S 31°58' W 099°15'1 4.1 19.4
2018-Jun-16 03:00S 31°58' W 099°14'1 2.4 19.4
2018-Jun-16 02:30S 31°58' W 099°15'0 0.0 19.4
2018-Jun-16 02:15S 31°58' W 099°15'0 0.0 19.4
2018-Jun-16 01:30S 31°58' W 099°15'0 0.0 19.4
2018-Jun-16 01:15S 31°58' W 099°15'1 1.6 19.5
2018-Jun-16 00:45S 31°59' W 099°14'0 0.0 19.5
2018-Jun-16 00:00S 31°59' W 099°14'0 0.0 19.5
2018-Jun-15 23:45S 31°59' W 099°14'0 0.0 19.5
2018-Jun-15 23:15S 31°59' W 099°14'0 0.0 19.5
2018-Jun-15 23:00S 31°59' W 099°14'1 0.8 19.5
2018-Jun-15 22:15S 31°59' W 099°14'1 5.2 19.5
2018-Jun-15 22:00S 32°01' W 099°15'0 0.0 19.5
2018-Jun-15 16:45S 32°01' W 099°15'1 0.5 19.4
2018-Jun-15 15:45S 32°01' W 099°16'0 0.0 19.4
2018-Jun-15 15:15S 32°01' W 099°16'0 0.0 19.4
2018-Jun-15 15:00S 32°01' W 099°16'0 0.0 19.4
2018-Jun-15 14:15S 32°01' W 099°16'0 0.0 19.4
2018-Jun-15 14:00S 32°01' W 099°16'0 0.0 19.4
2018-Jun-15 13:30S 32°01' W 099°16'1 1.0 19.4
2018-Jun-15 13:00S 32°01' W 099°15'0 0.0 19.4
2018-Jun-15 12:30S 32°01' W 099°15'0 0.0 19.4
2018-Jun-15 12:15S 32°01' W 099°15'0 0.0 19.4
2018-Jun-15 12:00S 32°01' W 099°15'1 3.1 19.4
2018-Jun-15 11:45S 32°01' W 099°14'0 0.0 19.4
2018-Jun-15 11:30S 32°01' W 099°14'0 0.0 19.4
2018-Jun-15 11:15S 32°01' W 099°14'0 0.0 19.4
2018-Jun-15 09:45S 32°01' W 099°14'3 0.7 19.4
2018-Jun-15 05:30S 32°04' W 099°13'1 4.8 19.5
2018-Jun-15 05:15S 32°02' W 099°13'2 2.5 19.5
2018-Jun-15 04:30S 32°04' W 099°13'0 0.0 19.5
2018-Jun-15 04:15S 32°04' W 099°13'1 3.1 19.5
2018-Jun-15 04:00S 32°04' W 099°13'0 0.0 19.5
2018-Jun-15 03:45S 32°04' W 099°13'1 0.8 19.5
2018-Jun-15 02:45S 32°04' W 099°13'0 0.0 19.5
2018-Jun-15 02:30S 32°04' W 099°13'0 0.0 19.5
2018-Jun-15 02:00S 32°04' W 099°13'0 0.0 19.5
2018-Jun-15 01:45S 32°04' W 099°13'1 1.0 19.5
2018-Jun-15 01:15S 32°04' W 099°13'1 2.4 19.5
2018-Jun-15 01:00S 32°05' W 099°13'0 0.0 19.5
2018-Jun-15 00:15S 32°05' W 099°13'0 0.0 19.5
2018-Jun-15 00:00S 32°05' W 099°13'0 0.0 19.5
2018-Jun-14 23:45S 32°05' W 099°13'1 3.1 19.5
2018-Jun-14 23:30S 32°05' W 099°13'0 0.0 19.5
2018-Jun-14 22:30S 32°05' W 099°13'1 4.1 19.5
2018-Jun-14 22:15S 32°05' W 099°12'0 0.0 19.5
2018-Jun-14 17:15S 32°05' W 099°12'0 0.0 19.5
2018-Jun-14 17:00S 32°05' W 099°12'1 0.8 19.5
2018-Jun-14 16:15S 32°06' W 099°12'0 0.0 19.4
2018-Jun-14 16:00S 32°06' W 099°12'0 0.0 19.4
2018-Jun-14 15:30S 32°06' W 099°12'0 0.0 19.4
2018-Jun-14 15:15S 32°06' W 099°12'0 0.0 19.4
2018-Jun-14 14:15S 32°06' W 099°12'1 3.1 19.4
2018-Jun-14 14:00S 32°07' W 099°11'0 0.0 19.4
2018-Jun-14 13:45S 32°07' W 099°11'0 0.0 19.4
2018-Jun-14 13:30S 32°07' W 099°11'0 0.0 19.4
2018-Jun-14 13:15S 32°07' W 099°11'1 0.7 19.4
2018-Jun-14 12:30S 32°07' W 099°11'0 0.0 19.4
2018-Jun-14 12:15S 32°07' W 099°11'0 0.0 19.4
2018-Jun-14 12:00S 32°07' W 099°11'0 0.0 19.4
2018-Jun-14 11:45S 32°07' W 099°11'0 0.0 19.4
2018-Jun-14 11:30S 32°07' W 099°11'1 0.4 19.4
2018-Jun-14 10:00S 32°07' W 099°11'2 8.3 19.4
2018-Jun-14 09:45S 32°09' W 099°10'   19.4

Dump ship's entire track history